sensor_id;sensor_type;location;lat;lon;timestamp;temperature;humidity
5218;DHT22;26539;51.064;6.346;2023-01-10T08:11:58;6.20;1.00
5218;DHT22;26539;51.064;6.346;2023-01-10T08:15:14;6.30;99.90
5218;DHT22;26539;51.064;6.346;2023-01-10T08:50:09;11.60;1.00
5218;DHT22;26539;51.064;6.346;2023-01-10T15:30:53;8.30;99.90
5218;DHT22;26539;51.064;6.346;2023-01-10T15:33:28;8.20;1.00
5218;DHT22;26539;51.064;6.346;2023-01-10T15:36:06;8.20;99.90
5218;DHT22;26539;51.064;6.346;2023-01-10T15:38:35;8.10;99.90
5218;DHT22;26539;51.064;6.346;2023-01-10T15:41:04;8.00;1.00
5218;DHT22;26539;51.064;6.346;2023-01-10T15:43:34;8.00;1.00
5218;DHT22;26539;51.064;6.346;2023-01-10T15:46:03;7.90;1.00
5218;DHT22;26539;51.064;6.346;2023-01-10T15:48:33;7.80;99.90
5218;DHT22;26539;51.064;6.346;2023-01-10T15:51:01;7.80;1.00
5218;DHT22;26539;51.064;6.346;2023-01-10T15:56:33;7.60;1.00
5218;DHT22;26539;51.064;6.346;2023-01-10T15:59:00;7.60;99.90
5218;DHT22;26539;51.064;6.346;2023-01-10T16:01:27;7.60;99.90
5218;DHT22;26539;51.064;6.346;2023-01-10T16:04:12;7.50;99.90
5218;DHT22;26539;51.064;6.346;2023-01-10T16:06:39;7.50;99.90
5218;DHT22;26539;51.064;6.346;2023-01-10T16:09:14;7.50;99.90
5218;DHT22;26539;51.064;6.346;2023-01-10T16:11:49;7.50;99.90
5218;DHT22;26539;51.064;6.346;2023-01-10T16:14:34;7.50;99.90
5218;DHT22;26539;51.064;6.346;2023-01-10T16:17:00;7.50;99.90
5218;DHT22;26539;51.064;6.346;2023-01-10T16:19:26;7.50;99.90
5218;DHT22;26539;51.064;6.346;2023-01-10T16:21:55;7.50;1.00
5218;DHT22;26539;51.064;6.346;2023-01-10T16:24:34;7.50;1.00
5218;DHT22;26539;51.064;6.346;2023-01-10T16:27:03;7.50;1.00
5218;DHT22;26539;51.064;6.346;2023-01-10T16:29:30;7.50;1.00
5218;DHT22;26539;51.064;6.346;2023-01-10T16:31:55;7.50;1.00
5218;DHT22;26539;51.064;6.346;2023-01-10T16:34:21;7.50;1.00
5218;DHT22;26539;51.064;6.346;2023-01-10T16:36:46;7.50;1.00
5218;DHT22;26539;51.064;6.346;2023-01-10T16:39:17;7.50;1.00
5218;DHT22;26539;51.064;6.346;2023-01-10T16:41:44;7.40;1.00
5218;DHT22;26539;51.064;6.346;2023-01-10T16:44:29;7.50;1.00
5218;DHT22;26539;51.064;6.346;2023-01-10T16:46:55;7.40;1.00
5218;DHT22;26539;51.064;6.346;2023-01-10T16:49:21;7.40;1.00
5218;DHT22;26539;51.064;6.346;2023-01-10T16:51:47;7.30;1.00
5218;DHT22;26539;51.064;6.346;2023-01-10T16:54:15;7.30;1.00
5218;DHT22;26539;51.064;6.346;2023-01-10T16:56:41;7.30;1.00
5218;DHT22;26539;51.064;6.346;2023-01-10T16:59:08;7.30;1.00
5218;DHT22;26539;51.064;6.346;2023-01-10T17:01:45;7.30;1.00
5218;DHT22;26539;51.064;6.346;2023-01-10T17:04:20;7.20;1.00
5218;DHT22;26539;51.064;6.346;2023-01-10T17:06:46;7.20;1.00
5218;DHT22;26539;51.064;6.346;2023-01-10T17:09:27;7.10;1.00
5218;DHT22;26539;51.064;6.346;2023-01-10T17:12:04;7.10;1.00
5218;DHT22;26539;51.064;6.346;2023-01-10T17:14:33;7.10;1.00
5218;DHT22;26539;51.064;6.346;2023-01-10T17:16:59;7.00;1.00
5218;DHT22;26539;51.064;6.346;2023-01-10T17:19:25;7.00;1.00
5218;DHT22;26539;51.064;6.346;2023-01-10T17:21:51;7.00;1.00
5218;DHT22;26539;51.064;6.346;2023-01-10T17:24:16;7.00;1.00
5218;DHT22;26539;51.064;6.346;2023-01-10T17:26:42;7.00;1.00
5218;DHT22;26539;51.064;6.346;2023-01-10T17:29:08;7.00;1.00
5218;DHT22;26539;51.064;6.346;2023-01-10T17:31:33;7.00;1.00
5218;DHT22;26539;51.064;6.346;2023-01-10T17:33:59;7.00;1.00
5218;DHT22;26539;51.064;6.346;2023-01-10T17:36:25;7.00;1.00
5218;DHT22;26539;51.064;6.346;2023-01-10T17:38:57;7.10;1.00
5218;DHT22;26539;51.064;6.346;2023-01-10T17:41:23;7.10;1.00
5218;DHT22;26539;51.064;6.346;2023-01-10T17:43:49;7.10;1.00
5218;DHT22;26539;51.064;6.346;2023-01-10T17:46:15;7.10;1.00
5218;DHT22;26539;51.064;6.346;2023-01-10T17:48:42;7.20;1.00
5218;DHT22;26539;51.064;6.346;2023-01-10T17:51:08;7.20;1.00
5218;DHT22;26539;51.064;6.346;2023-01-10T17:53:34;7.20;1.00
5218;DHT22;26539;51.064;6.346;2023-01-10T17:56:00;7.30;1.00
5218;DHT22;26539;51.064;6.346;2023-01-10T17:58:26;7.30;1.00
5218;DHT22;26539;51.064;6.346;2023-01-10T18:00:52;7.40;1.00
5218;DHT22;26539;51.064;6.346;2023-01-10T18:03:17;7.40;1.00
5218;DHT22;26539;51.064;6.346;2023-01-10T18:05:54;7.40;1.00
5218;DHT22;26539;51.064;6.346;2023-01-10T18:08:20;7.50;1.00
5218;DHT22;26539;51.064;6.346;2023-01-10T18:10:46;7.50;1.00
5218;DHT22;26539;51.064;6.346;2023-01-10T18:13:14;7.50;1.00
5218;DHT22;26539;51.064;6.346;2023-01-10T18:15:44;7.60;1.00
5218;DHT22;26539;51.064;6.346;2023-01-10T18:18:10;7.60;1.00
5218;DHT22;26539;51.064;6.346;2023-01-10T18:20:41;7.60;1.00
5218;DHT22;26539;51.064;6.346;2023-01-10T18:23:11;7.70;1.00
5218;DHT22;26539;51.064;6.346;2023-01-10T18:26:10;7.70;1.00
5218;DHT22;26539;51.064;6.346;2023-01-10T18:28:41;7.80;1.00
5218;DHT22;26539;51.064;6.346;2023-01-10T18:31:10;7.80;1.00
5218;DHT22;26539;51.064;6.346;2023-01-10T18:33:36;7.80;1.00
5218;DHT22;26539;51.064;6.346;2023-01-10T18:36:05;7.90;1.00
5218;DHT22;26539;51.064;6.346;2023-01-10T18:38:31;7.90;1.00
5218;DHT22;26539;51.064;6.346;2023-01-10T18:40:57;7.90;1.00
5218;DHT22;26539;51.064;6.346;2023-01-10T18:43:23;8.00;1.00
5218;DHT22;26539;51.064;6.346;2023-01-10T18:45:58;8.00;1.00
5218;DHT22;26539;51.064;6.346;2023-01-10T18:48:24;8.00;1.00
5218;DHT22;26539;51.064;6.346;2023-01-10T18:50:53;8.10;1.00
5218;DHT22;26539;51.064;6.346;2023-01-10T18:53:19;8.10;1.00
5218;DHT22;26539;51.064;6.346;2023-01-10T18:55:56;8.20;1.00
5218;DHT22;26539;51.064;6.346;2023-01-10T18:58:27;8.20;1.00
5218;DHT22;26539;51.064;6.346;2023-01-10T19:00:53;8.20;1.00
5218;DHT22;26539;51.064;6.346;2023-01-10T19:03:21;8.20;1.00
5218;DHT22;26539;51.064;6.346;2023-01-10T19:05:47;8.30;1.00
5218;DHT22;26539;51.064;6.346;2023-01-10T19:08:12;8.30;1.00
5218;DHT22;26539;51.064;6.346;2023-01-10T19:10:41;8.30;1.00
5218;DHT22;26539;51.064;6.346;2023-01-10T19:13:07;8.40;1.00
5218;DHT22;26539;51.064;6.346;2023-01-10T19:15:32;8.40;1.00
5218;DHT22;26539;51.064;6.346;2023-01-10T19:17:58;8.40;1.00
5218;DHT22;26539;51.064;6.346;2023-01-10T19:20:23;8.50;1.00
5218;DHT22;26539;51.064;6.346;2023-01-10T19:22:51;8.50;1.00
5218;DHT22;26539;51.064;6.346;2023-01-10T19:25:17;8.50;1.00
5218;DHT22;26539;51.064;6.346;2023-01-10T19:27:43;8.60;1.00
5218;DHT22;26539;51.064;6.346;2023-01-10T19:30:09;8.60;1.00
5218;DHT22;26539;51.064;6.346;2023-01-10T19:32:37;8.60;1.00
5218;DHT22;26539;51.064;6.346;2023-01-10T19:35:04;8.60;1.00
5218;DHT22;26539;51.064;6.346;2023-01-10T19:37:31;8.60;1.00
5218;DHT22;26539;51.064;6.346;2023-01-10T19:39:56;8.60;1.00
5218;DHT22;26539;51.064;6.346;2023-01-10T19:42:22;8.60;1.00
5218;DHT22;26539;51.064;6.346;2023-01-10T19:44:48;8.60;1.00
5218;DHT22;26539;51.064;6.346;2023-01-10T19:47:13;8.70;1.00
5218;DHT22;26539;51.064;6.346;2023-01-10T19:49:40;8.70;1.00
5218;DHT22;26539;51.064;6.346;2023-01-10T19:52:06;8.70;1.00
5218;DHT22;26539;51.064;6.346;2023-01-10T19:54:32;8.70;1.00
5218;DHT22;26539;51.064;6.346;2023-01-10T19:56:58;8.70;1.00
5218;DHT22;26539;51.064;6.346;2023-01-10T19:59:24;8.80;1.00
5218;DHT22;26539;51.064;6.346;2023-01-10T20:01:49;8.80;1.00
5218;DHT22;26539;51.064;6.346;2023-01-10T20:04:15;8.80;1.00
5218;DHT22;26539;51.064;6.346;2023-01-10T20:06:41;8.80;1.00
5218;DHT22;26539;51.064;6.346;2023-01-10T20:09:12;8.90;1.00
5218;DHT22;26539;51.064;6.346;2023-01-10T20:11:41;8.90;1.00
5218;DHT22;26539;51.064;6.346;2023-01-10T20:14:15;8.90;1.00
5218;DHT22;26539;51.064;6.346;2023-01-10T20:16:41;8.90;1.00
5218;DHT22;26539;51.064;6.346;2023-01-10T20:19:08;8.90;1.00
5218;DHT22;26539;51.064;6.346;2023-01-10T20:21:35;8.90;1.00
5218;DHT22;26539;51.064;6.346;2023-01-10T20:24:02;8.90;1.00
5218;DHT22;26539;51.064;6.346;2023-01-10T20:26:31;8.90;1.00
5218;DHT22;26539;51.064;6.346;2023-01-10T20:29:01;8.90;1.00
5218;DHT22;26539;51.064;6.346;2023-01-10T20:31:27;8.90;1.00
5218;DHT22;26539;51.064;6.346;2023-01-10T20:33:58;9.00;1.00
5218;DHT22;26539;51.064;6.346;2023-01-10T20:36:25;9.00;1.00
5218;DHT22;26539;51.064;6.346;2023-01-10T20:38:51;9.00;1.00
5218;DHT22;26539;51.064;6.346;2023-01-10T20:41:20;9.00;1.00
5218;DHT22;26539;51.064;6.346;2023-01-10T20:43:46;9.00;1.00
5218;DHT22;26539;51.064;6.346;2023-01-10T20:46:23;9.00;1.00
5218;DHT22;26539;51.064;6.346;2023-01-10T20:48:49;9.00;1.00
5218;DHT22;26539;51.064;6.346;2023-01-10T20:51:18;9.00;1.00
5218;DHT22;26539;51.064;6.346;2023-01-10T20:53:45;9.00;1.00
5218;DHT22;26539;51.064;6.346;2023-01-10T20:56:13;9.00;1.00
5218;DHT22;26539;51.064;6.346;2023-01-10T20:58:39;9.00;1.00
5218;DHT22;26539;51.064;6.346;2023-01-10T21:01:08;9.00;1.00
5218;DHT22;26539;51.064;6.346;2023-01-10T21:03:45;9.10;1.00
5218;DHT22;26539;51.064;6.346;2023-01-10T21:06:12;9.10;1.00
5218;DHT22;26539;51.064;6.346;2023-01-10T21:08:38;9.10;1.00
5218;DHT22;26539;51.064;6.346;2023-01-10T21:11:05;9.20;1.00
5218;DHT22;26539;51.064;6.346;2023-01-10T21:13:31;9.20;1.00
5218;DHT22;26539;51.064;6.346;2023-01-10T21:15:58;9.20;1.00
5218;DHT22;26539;51.064;6.346;2023-01-10T21:18:28;9.20;1.00
5218;DHT22;26539;51.064;6.346;2023-01-10T21:48:46;9.50;1.00
5218;DHT22;26539;51.064;6.346;2023-01-10T21:51:50;9.50;1.00
5218;DHT22;26539;51.064;6.346;2023-01-10T21:54:29;9.60;1.00
5218;DHT22;26539;51.064;6.346;2023-01-10T21:57:09;9.60;1.00
5218;DHT22;26539;51.064;6.346;2023-01-10T22:00:01;9.60;1.00
5218;DHT22;26539;51.064;6.346;2023-01-10T22:02:29;9.60;1.00
5218;DHT22;26539;51.064;6.346;2023-01-10T22:42:24;9.90;1.00
5218;DHT22;26539;51.064;6.346;2023-01-10T22:51:30;9.90;1.00
5218;DHT22;26539;51.064;6.346;2023-01-10T23:15:15;10.00;1.00
5218;DHT22;26539;51.064;6.346;2023-01-10T23:28:56;10.10;1.00
5218;DHT22;26539;51.064;6.346;2023-01-10T23:31:58;10.20;1.00
5218;DHT22;26539;51.064;6.346;2023-01-10T23:34:26;10.20;1.00
5218;DHT22;26539;51.064;6.346;2023-01-10T23:36:59;10.30;1.00
5218;DHT22;26539;51.064;6.346;2023-01-10T23:39:31;10.30;1.00
5218;DHT22;26539;51.064;6.346;2023-01-10T23:41:56;10.40;99.90
5218;DHT22;26539;51.064;6.346;2023-01-10T23:44:22;10.40;99.90
5218;DHT22;26539;51.064;6.346;2023-01-10T23:46:49;10.50;99.90
5218;DHT22;26539;51.064;6.346;2023-01-10T23:49:14;10.50;99.90
5218;DHT22;26539;51.064;6.346;2023-01-10T23:51:40;10.50;99.90
5218;DHT22;26539;51.064;6.346;2023-01-10T23:54:05;10.50;99.90
5218;DHT22;26539;51.064;6.346;2023-01-10T23:56:31;10.50;99.90
5218;DHT22;26539;51.064;6.346;2023-01-10T23:58:56;10.50;99.90
